createdAt,value
2024-04-19T00:00:23.527Z,77.79
2024-04-19T00:01:55.529Z,77.43
2024-04-19T00:03:30.171Z,78.00
2024-04-19T00:05:02.234Z,78.18
2024-04-19T00:06:37.398Z,78.02
2024-04-19T00:08:09.345Z,78.69
2024-04-19T00:09:47.169Z,78.68
2024-04-19T00:11:19.121Z,78.62
2024-04-19T00:12:53.749Z,78.56
2024-04-19T00:14:25.646Z,78.57
2024-04-19T00:16:03.892Z,78.58
2024-04-19T00:17:36.359Z,78.16
2024-04-19T00:19:14.317Z,77.77
2024-04-19T00:20:49.698Z,78.12
2024-04-19T00:22:21.569Z,78.62
2024-04-19T00:23:56.066Z,78.85
2024-04-19T00:25:30.712Z,79.17
2024-04-19T00:27:02.619Z,78.92
2024-04-19T00:28:55.374Z,78.64
2024-04-19T00:30:27.413Z,77.71
2024-04-19T00:31:59.308Z,78.31
2024-04-19T00:33:34.142Z,78.60
2024-04-19T00:35:06.104Z,78.75
2024-04-19T00:36:40.620Z,78.50
2024-04-19T00:38:13.122Z,78.52
2024-04-19T00:39:47.820Z,78.99
2024-04-19T00:41:22.446Z,78.83
2024-04-19T00:42:57.253Z,78.64
2024-04-19T00:44:32.702Z,79.09
2024-04-19T00:46:06.556Z,78.55
2024-04-19T00:47:41.204Z,78.56
2024-04-19T00:49:13.133Z,78.51
2024-04-19T00:50:48.440Z,78.48
2024-04-19T00:52:20.632Z,78.32
2024-04-19T00:53:55.648Z,78.46
2024-04-19T00:55:36.924Z,78.30
2024-04-19T00:57:14.651Z,78.10
2024-04-19T00:58:47.247Z,77.93
2024-04-19T01:00:20.190Z,78.44
2024-04-19T01:01:56.687Z,79.17
2024-04-19T01:03:29.431Z,79.38
2024-04-19T01:05:03.988Z,79.68
2024-04-19T01:06:35.934Z,79.90
2024-04-19T01:08:10.713Z,79.63
2024-04-19T01:09:42.954Z,78.94
2024-04-19T01:11:17.525Z,78.81
2024-04-19T01:12:52.840Z,79.78
2024-04-19T01:14:28.520Z,79.86
2024-04-19T01:16:03.024Z,79.63
2024-04-19T01:17:54.978Z,78.15
2024-04-19T01:19:29.866Z,78.91
2024-04-19T01:21:02.176Z,79.27
2024-04-19T01:22:34.252Z,78.97
2024-04-19T01:24:17.772Z,78.25
2024-04-19T01:25:49.976Z,78.48
2024-04-19T01:27:27.085Z,78.14
2024-04-19T01:28:58.969Z,77.88
2024-04-19T01:30:33.493Z,77.24
2024-04-19T01:32:06.320Z,77.55
2024-04-19T01:33:38.266Z,77.41
2024-04-19T01:35:13.165Z,76.75
2024-04-19T01:36:45.330Z,76.80
2024-04-19T01:38:17.812Z,77.22
2024-04-19T01:39:53.075Z,76.66
2024-04-19T01:41:26.066Z,75.57
2024-04-19T01:43:00.593Z,74.83
2024-04-19T01:44:35.068Z,73.26
2024-04-19T01:46:06.956Z,72.67
2024-04-19T01:47:40.085Z,72.89
2024-04-19T01:49:14.668Z,72.20
2024-04-19T01:50:46.523Z,70.51
2024-04-19T01:52:21.098Z,70.00
2024-04-19T01:53:53.262Z,69.18
2024-04-19T01:55:28.049Z,69.53
2024-04-19T01:57:01.405Z,70.12
2024-04-19T01:58:36.477Z,68.83
2024-04-19T02:00:12.436Z,68.73
2024-04-19T02:01:44.515Z,68.52
2024-04-19T02:03:19.108Z,68.15
2024-04-19T02:04:50.989Z,68.33
2024-04-19T02:06:22.895Z,67.90
2024-04-19T02:07:57.376Z,67.32
2024-04-19T02:09:29.472Z,66.74
2024-04-19T02:11:01.603Z,67.00
2024-04-19T02:12:36.243Z,67.49
2024-04-19T02:14:10.784Z,66.95
2024-04-19T02:15:42.891Z,67.05
2024-04-19T02:17:17.656Z,66.24
2024-04-19T02:18:49.594Z,66.05
2024-04-19T02:20:24.563Z,66.44
2024-04-19T02:21:56.754Z,66.39
2024-04-19T02:23:45.219Z,66.70
2024-04-19T02:25:17.141Z,66.76
2024-04-19T02:26:53.332Z,65.60
2024-04-19T02:28:43.569Z,65.37
2024-04-19T02:30:36.909Z,65.72
2024-04-19T02:32:11.431Z,66.07
2024-04-19T02:33:45.770Z,65.43
2024-04-19T02:35:20.523Z,66.17
2024-04-19T02:36:52.541Z,66.21
2024-04-19T02:38:27.651Z,65.41
2024-04-19T02:39:59.550Z,65.61
2024-04-19T02:41:34.529Z,65.68
2024-04-19T02:43:06.392Z,65.99
2024-04-19T02:44:41.153Z,65.14
2024-04-19T02:46:18.317Z,65.57
2024-04-19T02:47:53.068Z,64.96
2024-04-19T02:49:24.924Z,64.36
2024-04-19T02:50:59.888Z,64.75
2024-04-19T02:52:31.738Z,64.07
2024-04-19T02:54:06.521Z,64.72
2024-04-19T02:55:38.366Z,64.12
2024-04-19T02:57:12.816Z,64.35
2024-04-19T02:58:44.831Z,64.83
2024-04-19T03:00:19.500Z,64.04
2024-04-19T03:01:54.066Z,65.00
2024-04-19T03:03:40.545Z,64.43
2024-04-19T03:05:12.576Z,64.34
2024-04-19T03:06:47.098Z,63.67
2024-04-19T03:08:19.192Z,64.14
2024-04-19T03:09:53.749Z,63.74
2024-04-19T03:11:26.824Z,64.03
2024-04-19T03:13:01.491Z,63.59
2024-04-19T03:14:33.438Z,64.12
2024-04-19T03:16:09.481Z,63.42
2024-04-19T03:17:52.517Z,64.04
2024-04-19T03:19:24.471Z,63.43
2024-04-19T03:21:01.528Z,63.13
2024-04-19T03:22:36.040Z,63.57
2024-04-19T03:24:07.976Z,63.94
2024-04-19T03:25:42.439Z,63.76
2024-04-19T03:27:14.351Z,63.28
2024-04-19T03:28:59.394Z,64.69
2024-04-19T03:30:35.172Z,64.04
2024-04-19T03:32:10.153Z,63.13
2024-04-19T03:33:44.839Z,63.37
2024-04-19T03:35:19.580Z,63.05
2024-04-19T03:36:54.203Z,63.31
2024-04-19T03:38:26.602Z,62.47
2024-04-19T03:40:01.254Z,62.92
2024-04-19T03:41:34.796Z,63.05
2024-04-19T03:43:11.864Z,63.22
2024-04-19T03:45:02.491Z,62.63
2024-04-19T03:46:34.812Z,62.78
2024-04-19T03:48:10.099Z,63.09
2024-04-19T03:49:44.716Z,63.23
2024-04-19T03:51:19.447Z,62.79
2024-04-19T03:52:51.367Z,63.40
2024-04-19T03:54:25.947Z,62.48
2024-04-19T03:55:58.779Z,62.65
2024-04-19T03:57:33.318Z,62.44
2024-04-19T03:59:05.454Z,62.68
2024-04-19T04:00:41.124Z,63.14
2024-04-19T04:02:13.048Z,62.37
2024-04-19T04:04:01.641Z,63.07
2024-04-19T04:05:36.703Z,62.33
2024-04-19T04:07:11.183Z,62.42
2024-04-19T04:08:43.124Z,62.45
2024-04-19T04:10:18.289Z,63.13
2024-04-19T04:11:50.449Z,62.30
2024-04-19T04:13:25.271Z,62.50
2024-04-19T04:14:57.250Z,61.82
2024-04-19T04:16:31.698Z,62.41
2024-04-19T04:18:04.065Z,62.10
2024-04-19T04:19:38.830Z,61.65
2024-04-19T04:21:13.325Z,61.61
2024-04-19T04:22:47.848Z,62.08
2024-04-19T04:24:19.802Z,61.86
2024-04-19T04:25:54.812Z,61.24
2024-04-19T04:27:26.729Z,60.92
2024-04-19T04:29:01.672Z,61.17
2024-04-19T04:30:33.602Z,61.97
2024-04-19T04:32:09.239Z,61.60
2024-04-19T04:33:41.429Z,61.75
2024-04-19T04:35:15.898Z,61.58
2024-04-19T04:36:50.547Z,61.55
2024-04-19T04:38:25.472Z,60.05
2024-04-19T04:39:57.389Z,59.97
2024-04-19T04:41:31.814Z,59.97
2024-04-19T04:43:04.549Z,60.61
2024-04-19T04:44:39.234Z,59.74
2024-04-19T04:46:11.308Z,59.71
2024-04-19T04:47:45.884Z,59.38
2024-04-19T04:49:20.360Z,59.23
2024-04-19T04:50:54.833Z,60.13
2024-04-19T04:52:29.493Z,59.54
2024-04-19T04:54:03.979Z,58.95
2024-04-19T04:55:36.148Z,58.73
2024-04-19T04:57:11.150Z,58.19
2024-04-19T04:58:43.040Z,59.08
2024-04-19T05:00:17.800Z,57.94
2024-04-19T05:01:49.699Z,57.41
2024-04-19T05:03:24.173Z,58.09
2024-04-19T05:04:56.295Z,58.46
2024-04-19T05:06:30.844Z,56.94
2024-04-19T05:08:05.842Z,56.33
2024-04-19T05:09:40.431Z,56.69
2024-04-19T05:11:12.360Z,56.54
2024-04-19T05:12:47.006Z,55.52
2024-04-19T05:14:18.923Z,56.62
2024-04-19T05:15:53.791Z,56.72
2024-04-19T05:17:26.132Z,56.12
2024-04-19T05:19:00.670Z,56.32
2024-04-19T05:20:32.914Z,56.01
2024-04-19T05:22:07.573Z,56.17
2024-04-19T05:23:42.072Z,55.67
2024-04-19T05:25:16.790Z,55.64
2024-04-19T05:26:48.678Z,54.92
2024-04-19T05:28:25.873Z,55.41
2024-04-19T05:29:58.098Z,54.44
2024-04-19T05:31:32.648Z,55.55
2024-04-19T05:33:07.079Z,55.83
2024-04-19T05:34:43.378Z,55.85
2024-04-19T05:36:15.301Z,54.92
2024-04-19T05:37:50.036Z,55.22
2024-04-19T05:39:24.611Z,55.40
2024-04-19T05:40:59.253Z,54.96
2024-04-19T05:42:34.328Z,54.82
2024-04-19T05:44:09.396Z,54.05
2024-04-19T05:45:41.620Z,53.92
2024-04-19T05:47:16.225Z,52.43
2024-04-19T05:48:48.226Z,52.90
2024-04-19T05:50:22.741Z,53.35
2024-04-19T05:51:54.635Z,54.23
2024-04-19T05:53:29.155Z,52.95
2024-04-19T05:55:05.012Z,53.31
2024-04-19T05:56:39.503Z,52.72
2024-04-19T05:58:11.460Z,52.85
2024-04-19T05:59:45.935Z,52.83
2024-04-19T06:01:17.941Z,53.36
2024-04-19T06:02:52.505Z,52.39
2024-04-19T06:04:24.873Z,52.59
2024-04-19T06:05:59.388Z,52.76
2024-04-19T06:07:34.036Z,53.16
2024-04-19T06:09:06.140Z,53.40
2024-04-19T06:10:44.688Z,52.48
2024-04-19T06:12:16.661Z,52.09
2024-04-19T06:13:51.793Z,51.73
2024-04-19T06:15:26.337Z,51.67
2024-04-19T06:16:58.686Z,51.32
2024-04-19T06:18:33.541Z,52.28
2024-04-19T06:20:06.396Z,51.63
2024-04-19T06:21:40.898Z,51.20
2024-04-19T06:23:12.884Z,51.81
2024-04-19T06:24:47.809Z,51.44
2024-04-19T06:26:22.416Z,50.91
2024-04-19T06:27:56.967Z,51.05
2024-04-19T06:29:29.002Z,52.64
2024-04-19T06:31:09.953Z,52.44
2024-04-19T06:32:41.943Z,51.60
2024-04-19T06:34:16.483Z,51.57
2024-04-19T06:35:48.399Z,52.03
2024-04-19T06:37:22.870Z,50.86
2024-04-19T06:38:55.661Z,50.59
2024-04-19T06:40:30.289Z,50.62
2024-04-19T06:42:05.107Z,50.46
2024-04-19T06:43:39.734Z,50.42
2024-04-19T06:45:14.374Z,49.20
2024-04-19T06:46:49.151Z,49.74
2024-04-19T06:48:23.770Z,49.18
2024-04-19T06:49:55.812Z,49.88
2024-04-19T06:51:30.329Z,49.58
2024-04-19T06:53:02.234Z,49.39
2024-04-19T06:54:36.810Z,49.33
2024-04-19T06:56:11.682Z,49.96
2024-04-19T06:57:49.116Z,47.73
2024-04-19T06:59:21.042Z,49.03
2024-04-19T07:01:11.327Z,49.61
2024-04-19T07:02:51.125Z,50.30
2024-04-19T07:04:23.179Z,49.72
2024-04-19T07:05:57.786Z,48.87
2024-04-19T07:07:29.697Z,49.73
2024-04-19T07:09:04.428Z,49.26
2024-04-19T07:10:38.650Z,49.31
2024-04-19T07:12:13.150Z,49.14
2024-04-19T07:13:48.763Z,50.30
2024-04-19T07:15:23.421Z,49.59
2024-04-19T07:16:55.452Z,50.19
2024-04-19T07:18:30.027Z,49.56
2024-04-19T07:20:01.949Z,50.42
2024-04-19T07:21:36.496Z,48.49
2024-04-19T07:23:17.987Z,49.42
2024-04-19T07:24:50.705Z,49.03
2024-04-19T07:26:25.249Z,48.27
2024-04-19T07:27:57.243Z,48.54
2024-04-19T07:29:35.013Z,48.26
2024-04-19T07:31:08.603Z,47.79
2024-04-19T07:32:43.208Z,48.23
2024-04-19T07:34:15.179Z,46.98
2024-04-19T07:35:49.652Z,46.13
2024-04-19T07:37:21.520Z,47.81
2024-04-19T07:38:56.520Z,47.89
2024-04-19T07:40:28.389Z,47.63
2024-04-19T07:42:02.936Z,47.77
2024-04-19T07:43:35.157Z,46.63
2024-04-19T07:45:13.498Z,45.16
2024-04-19T07:46:45.880Z,43.69
2024-04-19T07:48:20.876Z,44.38
2024-04-19T07:49:52.841Z,44.17
2024-04-19T07:51:27.470Z,44.96
2024-04-19T07:52:59.476Z,44.35
2024-04-19T07:54:34.016Z,46.12
2024-04-19T07:56:06.281Z,43.19
2024-04-19T07:57:40.879Z,39.49
2024-04-19T07:59:12.790Z,40.24
2024-04-19T08:00:50.109Z,40.44
2024-04-19T08:02:22.310Z,41.69
2024-04-19T08:03:57.251Z,41.26
2024-04-19T08:05:29.871Z,41.50
2024-04-19T08:07:04.609Z,43.07
2024-04-19T08:08:39.038Z,42.44
2024-04-19T08:10:17.109Z,43.95
2024-04-19T08:11:52.684Z,43.21
2024-04-19T08:13:25.424Z,42.89
2024-04-19T08:14:59.951Z,43.95
2024-04-19T08:16:34.453Z,46.04
2024-04-19T08:18:09.487Z,46.56
2024-04-19T08:19:41.416Z,47.35
2024-04-19T08:21:15.927Z,48.05
2024-04-19T08:22:47.845Z,47.45
2024-04-19T08:24:22.306Z,47.87
2024-04-19T08:25:54.820Z,46.90
2024-04-19T08:27:29.356Z,48.76
2024-04-19T08:29:01.259Z,49.69
2024-04-19T08:30:35.811Z,49.21
2024-04-19T08:32:10.626Z,49.69
2024-04-19T08:33:45.243Z,49.30
2024-04-19T08:35:17.554Z,50.59
2024-04-19T08:36:52.431Z,48.89
2024-04-19T08:38:24.456Z,49.05
2024-04-19T08:40:00.540Z,51.15
2024-04-19T08:41:34.164Z,50.41
2024-04-19T08:43:09.281Z,50.20
2024-04-19T08:44:45.002Z,49.83
2024-04-19T08:46:20.043Z,49.71
2024-04-19T08:47:55.594Z,49.86
2024-04-19T08:49:31.028Z,49.25
2024-04-19T08:51:04.596Z,48.70
2024-04-19T08:52:59.429Z,49.72
2024-04-19T08:54:34.781Z,50.15
2024-04-19T08:56:11.684Z,50.16
2024-04-19T08:57:46.218Z,51.83
2024-04-19T08:59:22.634Z,51.10
2024-04-19T09:00:54.697Z,52.00
2024-04-19T09:02:29.807Z,51.99
2024-04-19T09:04:04.567Z,51.37
2024-04-19T09:05:39.252Z,50.41
2024-04-19T09:07:11.157Z,50.53
2024-04-19T09:08:46.107Z,48.97
2024-04-19T09:10:19.662Z,48.08
2024-04-19T09:11:55.478Z,46.88
2024-04-19T09:13:27.360Z,47.56
2024-04-19T09:15:02.443Z,47.38
2024-04-19T09:16:34.499Z,47.51
2024-04-19T09:18:09.631Z,45.21
2024-04-19T09:19:45.204Z,47.02
2024-04-19T09:21:23.643Z,47.40
2024-04-19T09:22:55.690Z,45.34
2024-04-19T09:24:30.175Z,44.34
2024-04-19T09:26:02.144Z,43.45
2024-04-19T09:27:40.806Z,43.41
2024-04-19T09:29:12.899Z,45.77
2024-04-19T09:30:48.093Z,45.39
2024-04-19T09:32:21.392Z,47.88
2024-04-19T09:33:58.952Z,48.33
2024-04-19T09:35:33.565Z,48.48
2024-04-19T09:37:08.354Z,47.71
2024-04-19T09:38:42.083Z,48.10
2024-04-19T09:40:16.953Z,48.00
2024-04-19T09:41:49.466Z,47.84
2024-04-19T09:43:26.936Z,47.68
2024-04-19T09:45:02.735Z,48.55
2024-04-19T09:46:38.750Z,48.36
2024-04-19T09:48:11.540Z,48.13
2024-04-19T09:49:48.600Z,50.32
2024-04-19T09:51:30.632Z,49.44
2024-04-19T09:53:07.669Z,49.08
2024-04-19T09:54:41.187Z,48.92
2024-04-19T09:56:29.945Z,49.12
2024-04-19T09:58:05.107Z,49.64
2024-04-19T09:59:42.736Z,48.46
2024-04-19T10:01:16.211Z,47.86
2024-04-19T10:02:51.258Z,49.02
2024-04-19T10:04:25.167Z,47.84
2024-04-19T10:06:01.127Z,48.50
2024-04-19T10:07:38.561Z,49.79
2024-04-19T10:09:14.803Z,51.38
2024-04-19T10:10:46.894Z,50.62
2024-04-19T10:12:22.050Z,50.45
2024-04-19T10:13:53.947Z,51.68
2024-04-19T10:15:28.450Z,48.84
2024-04-19T10:17:00.655Z,48.58
2024-04-19T10:18:38.114Z,47.32
2024-04-19T10:20:11.313Z,48.36
2024-04-19T10:21:46.081Z,47.83
2024-04-19T10:23:23.232Z,47.77
2024-04-19T10:24:59.506Z,46.61
2024-04-19T10:26:34.002Z,47.54
2024-04-19T10:28:08.280Z,46.53
2024-04-19T10:29:44.480Z,44.60
2024-04-19T10:31:16.519Z,44.20
2024-04-19T10:32:53.866Z,44.89
2024-04-19T10:34:25.878Z,42.83
2024-04-19T10:36:00.527Z,46.36
2024-04-19T10:37:32.419Z,44.85
2024-04-19T10:39:10.701Z,46.96
2024-04-19T10:40:44.332Z,45.04
2024-04-19T10:42:22.564Z,45.12
2024-04-19T10:43:54.663Z,44.78
2024-04-19T10:45:30.331Z,44.26
2024-04-19T10:47:02.408Z,43.99
2024-04-19T10:48:42.173Z,44.99
2024-04-19T10:50:15.125Z,46.33
2024-04-19T10:51:50.966Z,45.30
2024-04-19T10:53:22.951Z,44.39
2024-04-19T10:55:00.362Z,44.64
2024-04-19T10:56:32.297Z,44.99
2024-04-19T10:58:07.059Z,45.36
2024-04-19T10:59:39.411Z,46.75
2024-04-19T11:01:14.073Z,47.62
2024-04-19T11:02:46.041Z,46.37
2024-04-19T11:04:20.780Z,47.42
2024-04-19T11:05:53.357Z,46.20
2024-04-19T11:07:28.294Z,48.31
2024-04-19T11:09:00.294Z,48.43
2024-04-19T11:10:37.610Z,49.92
2024-04-19T11:12:10.433Z,51.52
2024-04-19T11:13:46.416Z,50.61
2024-04-19T11:15:18.397Z,51.24
2024-04-19T11:16:52.872Z,51.43
2024-04-19T11:18:24.891Z,53.46
2024-04-19T11:20:00.064Z,53.65
2024-04-19T11:21:32.470Z,54.05
2024-04-19T11:23:08.095Z,54.56
2024-04-19T11:24:40.904Z,54.81
2024-04-19T11:26:20.899Z,55.77
2024-04-19T11:27:54.729Z,55.61
2024-04-19T11:29:29.522Z,56.77
2024-04-19T11:31:09.769Z,55.54
2024-04-19T11:32:44.793Z,55.70
2024-04-19T11:34:16.682Z,57.67
2024-04-19T11:35:52.291Z,57.87
2024-04-19T11:37:24.163Z,58.76
2024-04-19T11:38:58.920Z,59.08
2024-04-19T11:40:31.733Z,60.15
2024-04-19T11:42:10.452Z,59.39
2024-04-19T11:43:42.450Z,59.76
2024-04-19T11:45:17.062Z,61.26
2024-04-19T11:46:50.429Z,62.35
2024-04-19T11:48:27.578Z,61.83
2024-04-19T11:49:59.778Z,62.50
2024-04-19T11:51:34.706Z,64.07
2024-04-19T11:53:09.207Z,64.90
2024-04-19T11:54:41.204Z,66.23
2024-04-19T11:56:17.166Z,66.78
2024-04-19T11:57:54.025Z,66.67
2024-04-19T11:59:30.076Z,66.67
2024-04-19T12:01:02.119Z,69.07
2024-04-19T12:02:36.718Z,67.97
2024-04-19T12:04:08.893Z,69.19
2024-04-19T12:05:43.799Z,68.90
2024-04-19T12:07:16.367Z,69.07
2024-04-19T12:08:51.054Z,69.98
2024-04-19T12:10:28.450Z,68.75
2024-04-19T12:15:59.965Z,67.73
2024-04-19T12:17:18.120Z,67.71
2024-04-19T12:18:54.727Z,68.80
2024-04-19T12:20:41.933Z,70.71
2024-04-19T12:22:23.001Z,71.13
2024-04-19T12:24:00.286Z,69.56
2024-04-19T12:25:35.415Z,69.50
2024-04-19T12:27:10.391Z,70.84
2024-04-19T12:28:54.502Z,69.74
2024-04-19T12:30:30.947Z,71.09
2024-04-19T12:32:04.428Z,70.76
2024-04-19T12:33:39.096Z,72.23
2024-04-19T12:35:13.249Z,71.91
2024-04-19T12:36:48.224Z,70.78
2024-04-19T12:38:20.309Z,73.09
2024-04-19T12:39:54.942Z,72.96
2024-04-19T12:41:31.082Z,74.32
2024-04-19T12:43:06.130Z,72.75
2024-04-19T12:44:48.851Z,72.96
2024-04-19T12:46:22.173Z,72.46
2024-04-19T12:48:06.321Z,73.20
2024-04-19T12:49:39.115Z,72.66
2024-04-19T12:51:13.625Z,74.13
2024-04-19T12:52:45.673Z,74.50
2024-04-19T12:54:20.619Z,73.70
2024-04-19T12:55:52.692Z,73.64
2024-04-19T12:57:28.271Z,74.01
2024-04-19T12:59:00.355Z,72.87
2024-04-19T13:00:37.479Z,72.64
2024-04-19T13:02:12.051Z,72.72
2024-04-19T13:03:45.669Z,71.04
2024-04-19T13:05:21.625Z,71.69
2024-04-19T13:06:53.742Z,69.40
2024-04-19T13:08:28.531Z,70.16
2024-04-19T13:10:00.727Z,66.32
2024-04-19T13:11:35.639Z,67.08
2024-04-19T13:13:07.608Z,68.03
2024-04-19T13:14:42.135Z,68.97
2024-04-19T13:16:18.241Z,69.18
2024-04-19T13:17:52.880Z,69.98
2024-04-19T13:19:24.938Z,69.82
2024-04-19T13:20:59.457Z,70.57
2024-04-19T13:22:31.329Z,72.20
2024-04-19T13:24:05.793Z,72.65
2024-04-19T13:25:37.824Z,73.83
2024-04-19T13:27:12.455Z,72.27
2024-04-19T13:28:45.334Z,74.51
2024-04-19T13:30:20.019Z,73.48
2024-04-19T13:31:55.290Z,73.35
2024-04-19T13:33:29.934Z,74.19
2024-04-19T13:35:05.894Z,72.97
2024-04-19T13:36:37.975Z,73.03
2024-04-19T13:38:12.491Z,72.86
2024-04-19T13:39:44.419Z,71.94
2024-04-19T13:41:20.129Z,71.63
2024-04-19T13:42:52.019Z,71.67
2024-04-19T13:44:27.015Z,71.48
2024-04-19T13:45:59.095Z,71.40
2024-04-19T13:47:36.372Z,70.77
2024-04-19T13:49:08.387Z,69.80
2024-04-19T13:50:42.972Z,70.09
2024-04-19T13:52:14.875Z,69.49
2024-04-19T13:53:51.054Z,70.50
2024-04-19T13:55:23.174Z,71.16
2024-04-19T13:56:57.662Z,69.16
2024-04-19T13:58:31.196Z,69.99
2024-04-19T14:00:09.965Z,70.61
2024-04-19T14:01:44.356Z,70.34
2024-04-19T14:03:21.579Z,71.13
2024-04-19T14:04:53.512Z,71.07
2024-04-19T14:06:28.289Z,70.38
2024-04-19T14:08:00.748Z,70.72
2024-04-19T14:09:35.242Z,71.61
2024-04-19T14:11:07.150Z,72.26
2024-04-19T14:12:42.130Z,72.35
2024-04-19T14:14:14.024Z,71.12
2024-04-19T14:15:48.689Z,71.40
2024-04-19T14:17:20.778Z,71.09
2024-04-19T14:18:58.108Z,70.22
2024-04-19T14:20:29.998Z,69.46
2024-04-19T14:22:05.034Z,69.74
2024-04-19T14:23:37.205Z,69.68
2024-04-19T14:25:13.898Z,67.72
2024-04-19T14:26:46.282Z,68.25
2024-04-19T14:28:20.736Z,68.27
2024-04-19T14:29:54.718Z,67.15
2024-04-19T14:31:29.174Z,67.00
2024-04-19T14:33:03.704Z,66.56
2024-04-19T14:34:38.155Z,65.13
2024-04-19T14:36:12.771Z,66.10
2024-04-19T14:37:44.659Z,63.76
2024-04-19T14:39:19.219Z,65.82
2024-04-19T14:40:51.116Z,64.61
2024-04-19T14:42:27.829Z,64.41
2024-04-19T14:44:00.123Z,64.46
2024-04-19T14:45:34.671Z,64.07
2024-04-19T14:47:09.216Z,63.88
2024-04-19T14:48:41.238Z,64.89
2024-04-19T14:50:18.458Z,64.37
2024-04-19T14:51:50.776Z,64.15
2024-04-19T14:53:25.322Z,65.76
2024-04-19T14:54:57.174Z,64.06
2024-04-19T14:56:32.859Z,64.62
2024-04-19T14:58:05.419Z,63.41
2024-04-19T14:59:39.905Z,64.34
2024-04-19T15:01:12.041Z,65.15
2024-04-19T15:02:46.589Z,64.00
2024-04-19T15:04:18.590Z,63.39
2024-04-19T15:05:56.451Z,64.20
2024-04-19T15:07:28.413Z,64.41
2024-04-19T15:09:02.876Z,62.51
2024-04-19T15:10:34.875Z,63.29
2024-04-19T15:12:10.184Z,61.63
2024-04-19T15:13:42.240Z,59.41
2024-04-19T15:15:16.877Z,59.05
2024-04-19T15:16:49.439Z,58.57
2024-04-19T15:18:24.466Z,59.65
2024-04-19T15:19:56.396Z,59.19
2024-04-19T15:21:33.537Z,59.66
2024-04-19T15:23:07.582Z,59.58
2024-04-19T15:24:42.088Z,60.38
2024-04-19T15:26:14.014Z,58.93
2024-04-19T15:27:48.480Z,58.85
2024-04-19T15:29:20.335Z,59.58
2024-04-19T15:30:54.848Z,59.21
2024-04-19T15:32:27.078Z,59.14
2024-04-19T15:34:13.825Z,59.76
2024-04-19T15:35:56.500Z,61.40
2024-04-19T15:37:31.077Z,60.32
2024-04-19T15:39:05.690Z,60.13
2024-04-19T15:40:38.818Z,59.22
2024-04-19T15:42:14.297Z,57.40
2024-04-19T15:43:46.219Z,57.54
2024-04-19T15:45:20.993Z,57.70
2024-04-19T15:46:53.265Z,57.12
2024-04-19T15:48:27.748Z,58.28
2024-04-19T15:49:59.681Z,58.52
2024-04-19T15:51:34.404Z,59.35
2024-04-19T15:53:08.955Z,58.76
2024-04-19T15:54:43.575Z,58.61
2024-04-19T15:56:15.475Z,59.85
2024-04-19T15:57:49.995Z,59.99
2024-04-19T15:59:25.324Z,61.04
2024-04-19T16:00:59.896Z,60.47
2024-04-19T16:02:31.816Z,59.71
2024-04-19T16:04:06.466Z,60.33
2024-04-19T16:05:38.786Z,60.21
2024-04-19T16:07:13.743Z,60.91
2024-04-19T16:08:50.899Z,61.11
2024-04-19T16:10:23.255Z,61.17
2024-04-19T16:11:59.091Z,61.67
2024-04-19T16:13:31.014Z,61.88
2024-04-19T16:15:05.790Z,62.10
2024-04-19T16:16:39.430Z,62.46
2024-04-19T16:18:13.990Z,62.30
2024-04-19T16:19:46.068Z,63.02
2024-04-19T16:21:20.547Z,62.63
2024-04-19T16:22:52.438Z,62.45
2024-04-19T16:24:29.869Z,63.08
2024-04-19T16:26:01.839Z,61.88
2024-04-19T16:27:36.378Z,61.62
2024-04-19T16:29:08.268Z,62.03
2024-04-19T16:30:43.075Z,61.74
2024-04-19T16:32:15.328Z,62.18
2024-04-19T16:33:50.495Z,60.96
2024-04-19T16:35:22.529Z,61.23
2024-04-19T16:36:57.092Z,60.92
2024-04-19T16:38:29.015Z,59.74
2024-04-19T16:40:06.544Z,60.21
2024-04-19T16:41:38.423Z,61.93
2024-04-19T16:43:13.437Z,61.95
2024-04-19T16:44:51.183Z,61.68
2024-04-19T16:46:26.050Z,61.06
2024-04-19T16:47:58.000Z,60.58
2024-04-19T16:49:32.915Z,61.31
2024-04-19T16:51:05.391Z,61.28
2024-04-19T16:52:39.905Z,60.92
2024-04-19T16:54:11.782Z,61.16
2024-04-19T16:55:49.207Z,60.92
2024-04-19T16:57:21.160Z,61.42
2024-04-19T16:58:55.775Z,61.66
2024-04-19T17:00:27.728Z,61.99
2024-04-19T17:02:05.523Z,61.98
2024-04-19T17:03:38.619Z,61.48
2024-04-19T17:05:14.982Z,62.14
2024-04-19T17:06:54.851Z,62.50
2024-04-19T17:08:28.959Z,61.92
2024-04-19T17:10:03.430Z,62.40
2024-04-19T17:11:40.751Z,63.10
2024-04-19T17:13:12.692Z,62.72
2024-04-19T17:14:47.178Z,62.92
2024-04-19T17:16:19.640Z,62.64
2024-04-19T17:17:57.206Z,63.51
2024-04-19T17:19:29.415Z,63.96
2024-04-19T17:21:06.222Z,64.74
2024-04-19T17:22:38.489Z,64.67
2024-04-19T17:24:13.593Z,64.88
2024-04-19T17:25:47.936Z,65.55
2024-04-19T17:27:25.079Z,65.38
2024-04-19T17:28:57.670Z,65.49
2024-04-19T17:30:32.253Z,65.45
2024-04-19T17:32:04.669Z,65.95
2024-04-19T17:33:39.303Z,65.32
2024-04-19T17:35:12.204Z,65.49
2024-04-19T17:36:47.794Z,64.97
2024-04-19T17:38:22.242Z,65.55
2024-04-19T17:39:54.156Z,65.11
2024-04-19T17:41:29.064Z,65.05
2024-04-19T17:43:04.466Z,65.39
2024-04-19T17:44:38.932Z,64.70
2024-04-19T17:46:10.924Z,65.00
2024-04-19T17:47:45.524Z,64.93
2024-04-19T17:49:17.506Z,65.59
2024-04-19T17:50:52.172Z,65.12
2024-04-19T17:52:24.998Z,65.37
2024-04-19T17:53:59.964Z,64.81
2024-04-19T17:55:31.933Z,65.48
2024-04-19T17:57:07.089Z,65.16
2024-04-19T17:58:45.127Z,65.55
2024-04-19T18:00:17.229Z,66.06
2024-04-19T18:01:51.672Z,65.71
2024-04-19T18:03:23.714Z,65.55
2024-04-19T18:04:58.291Z,66.80
2024-04-19T18:06:30.199Z,66.60
2024-04-19T18:08:04.710Z,66.67
2024-04-19T18:09:37.054Z,66.44
2024-04-19T18:11:11.598Z,66.45
2024-04-19T18:12:43.952Z,66.72
2024-04-19T18:14:21.047Z,66.20
2024-04-19T18:15:52.941Z,66.68
2024-04-19T18:17:27.807Z,66.29
2024-04-19T18:18:59.908Z,66.01
2024-04-19T18:20:34.393Z,66.58
2024-04-19T18:22:08.725Z,66.04
2024-04-19T18:23:43.908Z,65.96
2024-04-19T18:25:15.892Z,66.03
2024-04-19T18:26:50.349Z,65.99
2024-04-19T18:28:22.857Z,66.24
2024-04-19T18:30:01.288Z,66.06
2024-04-19T18:31:36.160Z,66.15
2024-04-19T18:33:09.093Z,65.36
2024-04-19T18:34:43.692Z,66.41
2024-04-19T18:36:19.000Z,65.85
2024-04-19T18:37:53.418Z,66.14
2024-04-19T18:39:25.278Z,66.48
2024-04-19T18:41:00.156Z,66.13
2024-04-19T18:42:32.070Z,66.90
2024-04-19T18:44:06.623Z,66.41
2024-04-19T18:45:46.624Z,66.62
2024-04-19T18:47:19.844Z,67.32
2024-04-19T18:48:55.295Z,66.42
2024-04-19T18:50:27.417Z,66.32
2024-04-19T18:52:02.442Z,66.88
2024-04-19T18:53:34.361Z,66.23
2024-04-19T18:55:09.244Z,66.37
2024-04-19T18:56:41.236Z,67.12
2024-04-19T18:58:15.654Z,67.49
2024-04-19T18:59:51.796Z,67.23
2024-04-19T19:01:30.033Z,67.51
2024-04-19T19:03:04.557Z,67.20
2024-04-19T19:04:36.869Z,67.03
2024-04-19T19:06:13.449Z,67.50
2024-04-19T19:07:45.315Z,67.26
2024-04-19T19:09:20.118Z,66.81
2024-04-19T19:10:52.024Z,67.68
2024-04-19T19:12:26.920Z,67.75
2024-04-19T19:14:01.399Z,67.65
2024-04-19T19:15:34.580Z,67.63
2024-04-19T19:17:11.711Z,67.39
2024-04-19T19:18:43.674Z,67.92
2024-04-19T19:20:18.457Z,68.12
2024-04-19T19:21:50.660Z,67.59
2024-04-19T19:23:25.481Z,67.93
2024-04-19T19:24:57.322Z,67.69
2024-04-19T19:26:31.992Z,67.91
2024-04-19T19:28:04.368Z,68.30
2024-04-19T19:29:38.870Z,67.96
2024-04-19T19:31:10.709Z,68.14
2024-04-19T19:32:48.820Z,68.51
2024-04-19T19:34:20.741Z,68.25
2024-04-19T19:36:01.021Z,67.77
2024-04-19T19:37:32.860Z,68.62
2024-04-19T19:39:07.565Z,68.43
2024-04-19T19:40:45.591Z,67.69
2024-04-19T19:42:20.182Z,68.10
2024-04-19T19:43:52.059Z,68.14
2024-04-19T19:45:26.646Z,68.44
2024-04-19T19:46:59.933Z,68.44
2024-04-19T19:48:37.079Z,68.08
2024-04-19T19:50:09.626Z,68.19
2024-04-19T19:51:44.567Z,68.11
2024-04-19T19:53:16.530Z,67.98
2024-04-19T19:54:50.930Z,67.68
2024-04-19T19:56:22.922Z,67.07
2024-04-19T19:57:57.624Z,67.50
2024-04-19T19:59:48.296Z,67.40
2024-04-19T20:01:38.898Z,67.91
2024-04-19T20:03:44.322Z,67.48
2024-04-19T20:05:37.989Z,68.03
2024-04-19T20:07:13.292Z,68.02
2024-04-19T20:08:45.236Z,67.96
2024-04-19T20:10:19.975Z,68.43
2024-04-19T20:11:53.094Z,68.92
2024-04-19T20:13:27.674Z,69.20
2024-04-19T20:14:59.657Z,69.40
2024-04-19T20:16:34.199Z,70.20
2024-04-19T20:18:06.591Z,70.79
2024-04-19T20:19:41.611Z,71.38
2024-04-19T20:21:16.302Z,71.57